createdAt,value
2019-05-07T00:00:03.370Z,5.00
2019-05-07T00:02:43.397Z,5.00
2019-05-07T00:05:23.120Z,5.00
2019-05-07T00:08:03.236Z,4.90
2019-05-07T00:10:43.365Z,4.90
2019-05-07T00:13:23.905Z,4.80
2019-05-07T00:16:03.645Z,4.80
2019-05-07T00:18:43.434Z,4.80
2019-05-07T00:21:24.273Z,4.80
2019-05-07T00:24:04.730Z,4.90
2019-05-07T00:26:45.297Z,4.90
2019-05-07T00:29:25.422Z,4.90
2019-05-07T00:32:05.474Z,5.00
2019-05-07T00:34:49.785Z,5.00
2019-05-07T00:41:04.549Z,4.90
2019-05-07T00:43:45.952Z,5.00
2019-05-07T00:46:29.023Z,5.00
2019-05-07T00:49:09.771Z,4.90
2019-05-07T00:51:51.845Z,4.90
2019-05-07T00:54:32.537Z,4.90
2019-05-07T00:57:12.577Z,5.00
2019-05-07T00:59:52.921Z,5.00
2019-05-07T01:02:32.722Z,5.00
2019-05-07T01:05:12.924Z,5.10
2019-05-07T01:07:53.051Z,5.30
2019-05-07T01:10:33.091Z,5.10
2019-05-07T01:13:12.991Z,5.20
2019-05-07T01:15:53.438Z,5.10
2019-05-07T01:18:33.116Z,4.90
2019-05-07T01:21:14.493Z,4.90
2019-05-07T01:23:54.621Z,5.00
2019-05-07T01:26:35.961Z,5.00
2019-05-07T01:29:16.018Z,5.00
2019-05-07T01:38:16.373Z,5.00
2019-05-07T01:40:56.371Z,5.00
2019-05-07T01:43:36.505Z,5.00
2019-05-07T01:46:16.559Z,4.90
2019-05-07T01:48:57.572Z,4.80
2019-05-07T01:51:38.571Z,4.90
2019-05-07T01:54:18.593Z,4.80
2019-05-07T01:56:58.567Z,4.70
2019-05-07T01:59:38.849Z,4.60
2019-05-07T02:02:24.726Z,4.60
2019-05-07T02:11:37.837Z,4.40
2019-05-07T02:14:17.678Z,4.50
2019-05-07T02:16:57.985Z,4.50
2019-05-07T02:19:38.217Z,4.60
2019-05-07T02:22:17.758Z,4.60
2019-05-07T02:24:58.141Z,4.50
2019-05-07T02:27:38.152Z,4.50
2019-05-07T02:30:18.141Z,4.50
2019-05-07T02:32:58.355Z,4.50
2019-05-07T02:35:38.466Z,4.50
2019-05-07T02:41:28.583Z,4.30
2019-05-07T02:44:08.735Z,4.20
2019-05-07T02:46:53.903Z,4.20
2019-05-07T02:53:08.629Z,4.10
2019-05-07T02:55:52.849Z,4.10
2019-05-07T02:58:33.376Z,4.10
2019-05-07T03:01:14.141Z,4.00
2019-05-07T03:03:53.649Z,3.90
2019-05-07T03:06:34.297Z,3.90
2019-05-07T03:09:14.769Z,3.80
2019-05-07T03:11:55.361Z,3.80
2019-05-07T03:14:35.362Z,3.80
2019-05-07T03:17:15.626Z,3.90
2019-05-07T03:19:57.401Z,3.90
2019-05-07T03:22:39.403Z,3.90
2019-05-07T03:25:26.722Z,3.90
2019-05-07T03:28:06.993Z,3.90
2019-05-07T03:30:56.655Z,3.90
2019-05-07T03:36:48.007Z,3.70
2019-05-07T03:39:27.630Z,3.70
2019-05-07T03:42:08.309Z,3.60
2019-05-07T03:45:07.430Z,3.50
2019-05-07T03:47:54.148Z,3.40
2019-05-07T03:50:34.062Z,3.30
2019-05-07T03:53:14.502Z,3.30
2019-05-07T03:55:55.197Z,3.30
2019-05-07T03:58:35.130Z,3.50
2019-05-07T04:01:15.286Z,3.60
2019-05-07T04:03:55.738Z,3.40
2019-05-07T04:06:35.921Z,3.40
2019-05-07T04:09:15.974Z,3.50
2019-05-07T04:11:55.623Z,3.50
2019-05-07T04:14:36.296Z,3.50
2019-05-07T04:17:22.304Z,3.60
2019-05-07T04:19:58.146Z,3.70
2019-05-07T04:22:38.511Z,3.70
2019-05-07T04:25:37.799Z,3.70
2019-05-07T04:28:38.036Z,3.70
2019-05-07T04:31:18.579Z,3.70
2019-05-07T04:34:03.641Z,3.80
2019-05-07T04:36:46.643Z,3.90
2019-05-07T04:39:26.642Z,4.00
2019-05-07T04:42:07.221Z,4.00
2019-05-07T04:44:48.103Z,4.10
2019-05-07T04:47:38.497Z,4.20
2019-05-07T04:50:13.981Z,4.30
2019-05-07T04:52:54.501Z,4.40
2019-05-07T04:55:34.775Z,4.30
2019-05-07T04:58:14.359Z,4.60
2019-05-07T05:00:54.875Z,4.80
2019-05-07T05:03:38.599Z,6.80
2019-05-07T05:06:16.835Z,8.60
2019-05-07T05:08:56.849Z,9.50
2019-05-07T05:11:37.574Z,10.50
2019-05-07T05:14:07.859Z,10.00
2019-05-07T05:17:02.066Z,9.10
2019-05-07T05:19:48.847Z,8.50
2019-05-07T05:22:53.203Z,8.20
2019-05-07T05:25:53.471Z,7.90
2019-05-07T05:28:34.151Z,7.60
2019-05-07T05:31:14.502Z,7.50
2019-05-07T05:33:54.992Z,7.40
2019-05-07T05:36:35.042Z,7.60
2019-05-07T05:39:14.799Z,7.50
2019-05-07T05:42:02.504Z,7.60
2019-05-07T05:45:03.719Z,7.60
2019-05-07T05:47:45.017Z,7.60
2019-05-07T05:50:27.145Z,7.70
2019-05-07T05:59:51.188Z,7.60
2019-05-07T06:06:23.930Z,7.70
2019-05-07T06:19:19.965Z,7.70
2019-05-07T06:25:24.281Z,7.80
2019-05-07T06:28:02.986Z,7.80
2019-05-07T06:30:42.999Z,7.70
2019-05-07T06:33:23.381Z,7.60
2019-05-07T06:36:03.215Z,7.60
2019-05-07T06:38:49.669Z,7.60
2019-05-07T06:41:49.254Z,7.60
2019-05-07T06:44:29.260Z,7.70
2019-05-07T06:47:09.037Z,7.90
2019-05-07T06:49:49.486Z,7.80
2019-05-07T06:52:28.994Z,7.70
2019-05-07T06:55:09.362Z,7.70
2019-05-07T06:57:49.726Z,7.70
2019-05-07T07:00:48.870Z,7.80
2019-05-07T07:07:23.085Z,7.90
2019-05-07T07:13:11.860Z,7.70
2019-05-07T07:15:52.169Z,7.70
2019-05-07T07:18:32.671Z,7.70
2019-05-07T07:21:12.475Z,7.70
2019-05-07T07:23:53.092Z,7.90
2019-05-07T07:26:35.383Z,7.90
2019-05-07T07:29:16.989Z,8.10
2019-05-07T07:31:59.681Z,8.10
2019-05-07T07:34:44.559Z,8.20
2019-05-07T07:41:05.348Z,8.40
2019-05-07T07:44:05.253Z,8.60
2019-05-07T07:46:45.308Z,8.60
2019-05-07T07:49:26.215Z,8.70
2019-05-07T07:52:05.819Z,8.80
2019-05-07T07:54:45.846Z,9.00
2019-05-07T08:01:18.209Z,9.20
2019-05-07T08:03:58.259Z,9.30
2019-05-07T08:06:41.814Z,9.40
2019-05-07T08:09:23.938Z,9.50
2019-05-07T08:12:03.354Z,9.50
2019-05-07T08:14:43.879Z,9.60
2019-05-07T08:17:23.467Z,9.50
2019-05-07T08:20:03.749Z,9.70
2019-05-07T08:22:44.534Z,9.60
2019-05-07T08:25:44.320Z,9.60
2019-05-07T08:28:24.403Z,9.70
2019-05-07T08:31:23.833Z,9.80
2019-05-07T08:37:35.198Z,10.00
2019-05-07T08:40:15.090Z,10.00
2019-05-07T08:42:56.298Z,10.10
2019-05-07T08:45:55.780Z,10.30
2019-05-07T08:48:42.455Z,10.40
2019-05-07T08:51:29.899Z,10.40
2019-05-07T08:54:12.147Z,10.30
2019-05-07T08:56:52.745Z,10.40
2019-05-07T08:59:33.911Z,10.30
2019-05-07T09:02:14.481Z,10.10
2019-05-07T09:04:56.301Z,9.90
2019-05-07T09:07:36.353Z,10.10
2019-05-07T09:10:16.026Z,10.10
2019-05-07T09:12:56.321Z,10.00
2019-05-07T09:15:36.158Z,9.90
2019-05-07T09:18:16.406Z,9.90
2019-05-07T09:20:56.629Z,10.00
2019-05-07T09:23:36.710Z,10.00
2019-05-07T09:26:19.234Z,10.20
2019-05-07T09:29:06.326Z,10.30
2019-05-07T09:32:06.125Z,10.50
2019-05-07T09:34:46.606Z,10.60
2019-05-07T09:37:27.826Z,10.70
2019-05-07T09:40:08.235Z,10.60
2019-05-07T09:42:48.199Z,10.60
2019-05-07T09:45:28.218Z,10.70
2019-05-07T09:48:08.723Z,10.50
2019-05-07T09:50:48.785Z,10.40
2019-05-07T09:53:28.654Z,10.40
2019-05-07T09:56:08.954Z,10.30
2019-05-07T09:58:49.055Z,10.60
2019-05-07T10:01:28.894Z,10.80
2019-05-07T10:04:08.775Z,10.80
2019-05-07T10:06:48.850Z,10.80
2019-05-07T10:09:29.066Z,11.00
2019-05-07T10:15:41.753Z,11.00
2019-05-07T10:18:22.848Z,10.90
2019-05-07T10:21:03.547Z,10.90
2019-05-07T10:23:43.894Z,11.00
2019-05-07T10:26:24.045Z,11.00
2019-05-07T10:29:03.803Z,11.20
2019-05-07T10:31:44.381Z,11.30
2019-05-07T10:34:23.842Z,11.30
2019-05-07T10:37:04.017Z,11.20
2019-05-07T10:39:44.169Z,11.10
2019-05-07T10:42:23.879Z,11.00
2019-05-07T10:45:23.681Z,11.10
2019-05-07T10:48:23.973Z,10.90
2019-05-07T10:51:04.914Z,11.00
2019-05-07T10:53:44.639Z,11.10
2019-05-07T10:56:25.085Z,11.10
2019-05-07T10:59:05.003Z,11.10
2019-05-07T11:01:51.985Z,11.10
2019-05-07T11:04:40.229Z,11.10
2019-05-07T11:07:13.975Z,11.10
2019-05-07T11:09:54.459Z,11.20
2019-05-07T11:12:34.471Z,11.20
2019-05-07T11:15:14.578Z,11.30
2019-05-07T11:21:14.346Z,11.30
2019-05-07T11:23:54.033Z,11.30
2019-05-07T11:26:34.461Z,11.20
2019-05-07T11:29:14.933Z,11.20
2019-05-07T11:31:55.276Z,11.20
2019-05-07T11:34:39.533Z,10.80
2019-05-07T11:37:19.494Z,10.90
2019-05-07T11:40:03.006Z,11.00
2019-05-07T11:43:04.979Z,11.00
2019-05-07T11:46:04.282Z,10.90
2019-05-07T11:48:51.313Z,11.00
2019-05-07T11:54:49.935Z,11.50
2019-05-07T11:57:30.378Z,11.60
2019-05-07T12:03:09.104Z,11.70
2019-05-07T12:05:48.813Z,12.00
2019-05-07T12:08:40.936Z,11.90
2019-05-07T12:11:11.914Z,11.90
2019-05-07T12:13:52.523Z,11.80
2019-05-07T12:16:32.772Z,11.80
2019-05-07T12:19:16.327Z,11.40
2019-05-07T12:21:55.333Z,11.20
2019-05-07T12:24:35.470Z,11.40
2019-05-07T12:27:15.646Z,11.70
2019-05-07T12:29:55.866Z,11.80
2019-05-07T12:35:52.497Z,11.90
2019-05-07T12:38:33.402Z,12.10
2019-05-07T12:41:34.167Z,12.20
2019-05-07T12:44:14.713Z,12.10
2019-05-07T12:46:54.943Z,12.20
2019-05-07T12:49:35.090Z,12.20
2019-05-07T12:52:20.088Z,12.10
2019-05-07T12:55:20.131Z,12.10
2019-05-07T12:57:47.618Z,12.00
2019-05-07T13:00:54.178Z,12.00
2019-05-07T13:03:40.050Z,12.10
2019-05-07T13:06:21.956Z,12.00
2019-05-07T13:09:02.040Z,12.10
2019-05-07T13:11:44.506Z,12.40
2019-05-07T13:14:24.561Z,12.20
2019-05-07T13:17:04.791Z,12.10
2019-05-07T13:19:44.757Z,12.40
2019-05-07T13:22:24.810Z,12.70
2019-05-07T13:25:04.775Z,12.80
2019-05-07T13:27:45.361Z,12.60
2019-05-07T13:30:25.505Z,12.60
2019-05-07T13:33:05.358Z,12.50
2019-05-07T13:35:45.317Z,12.50
2019-05-07T13:38:45.058Z,12.50
2019-05-07T13:41:45.321Z,12.50
2019-05-07T13:44:31.896Z,12.60
2019-05-07T13:47:38.513Z,12.60
2019-05-07T13:50:18.566Z,12.60
2019-05-07T13:52:58.974Z,12.60
2019-05-07T13:55:39.497Z,12.50
2019-05-07T13:58:22.836Z,12.40
2019-05-07T14:01:24.944Z,12.50
2019-05-07T14:04:05.499Z,12.50
2019-05-07T14:06:45.198Z,12.60
2019-05-07T14:09:25.589Z,12.70
2019-05-07T14:12:05.558Z,12.60
2019-05-07T14:14:45.306Z,12.80
2019-05-07T14:17:25.172Z,12.80
2019-05-07T14:20:05.334Z,12.80
2019-05-07T14:22:45.825Z,12.80
2019-05-07T14:25:25.938Z,12.80
2019-05-07T14:28:08.690Z,12.90
2019-05-07T14:30:48.969Z,12.80
2019-05-07T14:37:09.815Z,12.80
2019-05-07T14:39:51.830Z,12.90
2019-05-07T14:42:38.411Z,12.80
2019-05-07T14:45:18.651Z,12.90
2019-05-07T14:47:58.786Z,12.80
2019-05-07T14:50:38.930Z,12.80
2019-05-07T14:53:18.883Z,12.80
2019-05-07T14:55:59.151Z,12.80
2019-05-07T14:58:39.877Z,12.60
2019-05-07T15:01:19.811Z,12.70
2019-05-07T15:04:02.154Z,12.60
2019-05-07T15:06:41.771Z,12.80
2019-05-07T15:09:22.440Z,12.80
2019-05-07T15:12:02.430Z,12.60
2019-05-07T15:14:42.322Z,12.70
2019-05-07T15:20:44.785Z,12.80
2019-05-07T15:23:29.103Z,12.80
2019-05-07T15:26:09.366Z,12.90
2019-05-07T15:28:54.413Z,12.90
2019-05-07T15:31:54.307Z,12.70
2019-05-07T15:34:34.839Z,12.80
2019-05-07T15:37:16.191Z,12.80
2019-05-07T15:39:56.002Z,12.80
2019-05-07T15:42:35.702Z,12.80
2019-05-07T15:45:16.417Z,12.80
2019-05-07T15:47:57.609Z,13.00
2019-05-07T15:50:37.549Z,13.00
2019-05-07T15:56:24.262Z,12.90
2019-05-07T15:59:04.782Z,12.90
2019-05-07T16:01:44.699Z,12.80
2019-05-07T16:04:26.017Z,12.80
2019-05-07T16:07:08.168Z,12.70
2019-05-07T16:09:48.549Z,12.50
2019-05-07T16:15:31.982Z,12.70
2019-05-07T16:18:23.828Z,12.70
2019-05-07T16:21:05.051Z,12.70
2019-05-07T16:23:34.849Z,12.70
2019-05-07T16:26:22.067Z,12.70
2019-05-07T16:29:04.647Z,12.70
2019-05-07T16:31:44.733Z,12.60
2019-05-07T16:34:24.853Z,12.60
2019-05-07T16:37:07.448Z,12.60
2019-05-07T16:39:47.342Z,12.60
2019-05-07T16:42:27.328Z,12.50
2019-05-07T16:45:07.306Z,12.50
2019-05-07T16:47:47.293Z,12.60
2019-05-07T16:50:56.019Z,12.40
2019-05-07T16:53:43.304Z,12.50
2019-05-07T16:56:23.340Z,12.50
2019-05-07T16:59:07.681Z,12.60
2019-05-07T17:01:49.262Z,12.80
2019-05-07T17:04:16.389Z,12.60
2019-05-07T17:10:04.497Z,12.60
2019-05-07T17:12:45.765Z,12.50
2019-05-07T17:15:26.109Z,12.40
2019-05-07T17:18:06.203Z,12.30
2019-05-07T17:20:46.656Z,12.40
2019-05-07T17:23:26.358Z,12.40
2019-05-07T17:26:06.645Z,12.30
2019-05-07T17:28:47.549Z,12.30
2019-05-07T17:31:28.354Z,12.30
2019-05-07T17:34:09.012Z,12.30
2019-05-07T17:36:49.587Z,12.30
2019-05-07T17:39:29.508Z,12.30
2019-05-07T17:42:11.750Z,12.20
2019-05-07T17:44:52.068Z,12.20
2019-05-07T17:47:32.568Z,12.20
2019-05-07T17:50:14.700Z,12.30
2019-05-07T17:52:54.810Z,12.30
2019-05-07T17:55:35.160Z,12.40
2019-05-07T17:58:16.186Z,12.30
2019-05-07T18:00:57.669Z,12.20
2019-05-07T18:03:45.242Z,12.10
2019-05-07T18:06:13.045Z,12.10
2019-05-07T18:08:53.239Z,12.00
2019-05-07T18:11:33.293Z,11.90
2019-05-07T18:14:13.566Z,11.80
2019-05-07T18:17:15.989Z,11.70
2019-05-07T18:19:56.775Z,11.50
2019-05-07T18:22:37.237Z,11.30
2019-05-07T18:25:16.949Z,11.20
2019-05-07T18:27:56.600Z,11.10
2019-05-07T18:30:37.547Z,10.90
2019-05-07T18:36:34.895Z,10.70
2019-05-07T18:39:14.688Z,10.60
2019-05-07T18:41:55.114Z,10.50
2019-05-07T18:44:35.294Z,10.40
2019-05-07T18:47:16.187Z,10.30
2019-05-07T18:49:55.862Z,10.20
2019-05-07T18:52:36.250Z,10.00
2019-05-07T18:55:15.869Z,9.80
2019-05-07T18:57:56.390Z,9.60
2019-05-07T19:00:42.301Z,9.40
2019-05-07T19:03:25.238Z,9.30
2019-05-07T19:06:04.202Z,9.50
2019-05-07T19:08:44.703Z,9.40
2019-05-07T19:11:24.619Z,8.90
2019-05-07T19:14:04.630Z,8.60
2019-05-07T19:16:45.098Z,8.50
2019-05-07T19:19:24.922Z,8.70
2019-05-07T19:22:05.560Z,8.80
2019-05-07T19:24:48.114Z,8.80
2019-05-07T19:27:29.089Z,8.90
2019-05-07T19:30:12.534Z,8.90
2019-05-07T19:32:53.340Z,8.90
2019-05-07T19:35:33.950Z,8.70
2019-05-07T19:38:14.127Z,8.60
2019-05-07T19:40:54.532Z,8.30
2019-05-07T19:43:36.337Z,8.00
2019-05-07T19:46:16.469Z,7.80
2019-05-07T19:48:56.400Z,7.80
2019-05-07T19:51:24.735Z,7.80
2019-05-07T19:53:52.671Z,7.90
2019-05-07T19:56:54.989Z,7.90
2019-05-07T19:59:35.841Z,7.90
2019-05-07T20:02:18.909Z,7.60
2019-05-07T20:04:59.034Z,7.50
2019-05-07T20:07:39.450Z,7.70
2019-05-07T20:13:27.570Z,7.40
2019-05-07T20:16:14.669Z,7.20
2019-05-07T20:18:55.128Z,7.20
2019-05-07T20:21:35.625Z,7.40
2019-05-07T20:24:16.035Z,7.50
2019-05-07T20:26:56.403Z,7.40
2019-05-07T20:29:37.154Z,7.30
2019-05-07T20:32:17.102Z,7.10
2019-05-07T20:34:56.653Z,7.10
2019-05-07T20:37:36.806Z,7.00
2019-05-07T20:42:58.582Z,7.10
2019-05-07T20:45:38.890Z,6.90
2019-05-07T20:48:18.933Z,6.70
2019-05-07T20:50:59.115Z,6.50
2019-05-07T20:53:59.137Z,6.50
2019-05-07T20:56:42.232Z,6.70
2019-05-07T20:59:22.091Z,6.90
2019-05-07T21:02:02.507Z,6.60
2019-05-07T21:04:43.062Z,6.70
2019-05-07T21:07:22.779Z,6.50
2019-05-07T21:09:52.846Z,6.20
2019-05-07T21:13:00.077Z,6.10
2019-05-07T21:15:41.893Z,5.90
2019-05-07T21:18:23.543Z,6.20
2019-05-07T21:20:52.728Z,6.20
2019-05-07T21:23:46.250Z,6.20
2019-05-07T21:26:26.243Z,6.30
2019-05-07T21:32:08.526Z,5.90
2019-05-07T21:34:35.629Z,5.80
2019-05-07T21:37:22.939Z,6.00
2019-05-07T21:40:13.049Z,6.20
2019-05-07T21:42:53.621Z,6.50
2019-05-07T21:45:33.921Z,6.60
2019-05-07T21:48:13.885Z,6.70
2019-05-07T21:50:55.292Z,6.80
2019-05-07T21:57:26.187Z,6.70
2019-05-07T22:06:12.861Z,5.80
2019-05-07T22:15:04.513Z,6.30
2019-05-07T22:17:54.545Z,6.40
2019-05-07T22:20:35.110Z,6.30
2019-05-07T22:23:15.314Z,6.30
2019-05-07T22:25:55.941Z,6.20
2019-05-07T22:28:38.346Z,6.20
2019-05-07T22:31:37.775Z,6.30
2019-05-07T22:34:39.865Z,6.20
2019-05-07T22:37:22.096Z,6.20
2019-05-07T22:40:22.652Z,6.10
2019-05-07T22:43:04.365Z,6.00
2019-05-07T22:45:44.413Z,6.10
2019-05-07T22:48:24.746Z,6.10
2019-05-07T22:51:05.183Z,6.10
2019-05-07T22:53:44.741Z,6.00
2019-05-07T22:56:44.931Z,6.00
2019-05-07T22:59:24.910Z,6.00
2019-05-07T23:02:05.241Z,6.00
2019-05-07T23:04:47.182Z,6.00
2019-05-07T23:07:27.202Z,5.90
2019-05-07T23:10:07.354Z,6.00
2019-05-07T23:12:47.524Z,5.90
2019-05-07T23:15:27.765Z,5.90
2019-05-07T23:18:07.860Z,5.70
2019-05-07T23:20:47.334Z,5.70
2019-05-07T23:23:28.002Z,5.80
2019-05-07T23:26:08.590Z,5.90
2019-05-07T23:28:35.977Z,5.80
2019-05-07T23:34:12.551Z,5.80
2019-05-07T23:36:53.563Z,5.80
2019-05-07T23:39:36.530Z,5.70
2019-05-07T23:42:20.319Z,5.80
2019-05-07T23:45:01.976Z,5.80
2019-05-07T23:47:44.698Z,5.80
2019-05-07T23:50:32.403Z,5.90
2019-05-07T23:53:19.921Z,5.80
2019-05-07T23:56:02.651Z,5.70
2019-05-07T23:58:42.826Z,5.70
